sensor_id;sensor_type;location;lat;lon;timestamp;P1;durP1;ratioP1;P2;durP2;ratioP2
7835;SDS011;3963;42.658;23.298;2022-07-23T00:02:24;7.53;;;5.50;;
7835;SDS011;3963;42.658;23.298;2022-07-23T00:04:51;7.57;;;4.77;;
7835;SDS011;3963;42.658;23.298;2022-07-23T00:07:18;10.33;;;5.33;;
7835;SDS011;3963;42.658;23.298;2022-07-23T00:09:46;8.93;;;5.67;;
7835;SDS011;3963;42.658;23.298;2022-07-23T00:12:13;10.50;;;5.20;;
7835;SDS011;3963;42.658;23.298;2022-07-23T00:14:40;6.30;;;4.70;;
7835;SDS011;3963;42.658;23.298;2022-07-23T00:17:06;10.47;;;5.00;;
7835;SDS011;3963;42.658;23.298;2022-07-23T00:19:33;9.70;;;5.73;;
7835;SDS011;3963;42.658;23.298;2022-07-23T00:22:00;7.83;;;5.17;;
7835;SDS011;3963;42.658;23.298;2022-07-23T00:24:27;8.60;;;5.83;;
7835;SDS011;3963;42.658;23.298;2022-07-23T00:26:56;7.70;;;5.37;;
7835;SDS011;3963;42.658;23.298;2022-07-23T00:29:23;10.70;;;5.47;;
7835;SDS011;3963;42.658;23.298;2022-07-23T00:31:49;9.57;;;5.30;;
7835;SDS011;3963;42.658;23.298;2022-07-23T00:34:16;8.83;;;5.20;;
7835;SDS011;3963;42.658;23.298;2022-07-23T00:36:43;9.10;;;5.60;;
7835;SDS011;3963;42.658;23.298;2022-07-23T00:39:10;10.57;;;6.03;;
7835;SDS011;3963;42.658;23.298;2022-07-23T00:41:37;7.80;;;5.37;;
7835;SDS011;3963;42.658;23.298;2022-07-23T00:44:21;8.83;;;5.80;;
7835;SDS011;3963;42.658;23.298;2022-07-23T00:46:49;10.80;;;5.60;;
7835;SDS011;3963;42.658;23.298;2022-07-23T00:49:19;8.23;;;5.47;;
7835;SDS011;3963;42.658;23.298;2022-07-23T00:51:46;9.10;;;5.37;;
7835;SDS011;3963;42.658;23.298;2022-07-23T00:54:15;10.63;;;5.73;;
7835;SDS011;3963;42.658;23.298;2022-07-23T00:56:43;9.47;;;5.40;;
7835;SDS011;3963;42.658;23.298;2022-07-23T00:59:11;10.73;;;5.50;;
7835;SDS011;3963;42.658;23.298;2022-07-23T01:01:40;9.17;;;5.63;;
7835;SDS011;3963;42.658;23.298;2022-07-23T01:04:09;8.93;;;5.60;;
7835;SDS011;3963;42.658;23.298;2022-07-23T01:06:36;11.30;;;6.47;;
7835;SDS011;3963;42.658;23.298;2022-07-23T01:09:05;17.37;;;6.17;;
7835;SDS011;3963;42.658;23.298;2022-07-23T01:11:32;8.83;;;5.60;;
7835;SDS011;3963;42.658;23.298;2022-07-23T01:14:07;6.97;;;5.40;;
7835;SDS011;3963;42.658;23.298;2022-07-23T01:16:34;9.10;;;5.90;;
7835;SDS011;3963;42.658;23.298;2022-07-23T01:19:02;10.37;;;6.30;;
7835;SDS011;3963;42.658;23.298;2022-07-23T01:21:31;9.07;;;5.90;;
7835;SDS011;3963;42.658;23.298;2022-07-23T01:24:03;9.03;;;5.77;;
7835;SDS011;3963;42.658;23.298;2022-07-23T01:26:31;8.77;;;5.97;;
7835;SDS011;3963;42.658;23.298;2022-07-23T01:28:58;8.20;;;6.10;;
7835;SDS011;3963;42.658;23.298;2022-07-23T01:31:25;10.03;;;6.07;;
7835;SDS011;3963;42.658;23.298;2022-07-23T01:33:52;9.30;;;5.80;;
7835;SDS011;3963;42.658;23.298;2022-07-23T01:36:19;8.53;;;5.53;;
7835;SDS011;3963;42.658;23.298;2022-07-23T01:38:46;9.10;;;6.27;;
7835;SDS011;3963;42.658;23.298;2022-07-23T01:41:15;9.40;;;6.17;;
7835;SDS011;3963;42.658;23.298;2022-07-23T01:43:43;7.97;;;5.43;;
7835;SDS011;3963;42.658;23.298;2022-07-23T01:46:10;11.97;;;5.90;;
7835;SDS011;3963;42.658;23.298;2022-07-23T01:48:37;8.43;;;5.43;;
7835;SDS011;3963;42.658;23.298;2022-07-23T01:51:04;9.97;;;5.80;;
7835;SDS011;3963;42.658;23.298;2022-07-23T01:53:31;11.90;;;6.00;;
7835;SDS011;3963;42.658;23.298;2022-07-23T01:55:58;7.33;;;5.70;;
7835;SDS011;3963;42.658;23.298;2022-07-23T01:58:27;10.73;;;6.33;;
7835;SDS011;3963;42.658;23.298;2022-07-23T02:00:54;7.90;;;5.80;;
7835;SDS011;3963;42.658;23.298;2022-07-23T02:03:21;14.03;;;5.83;;
7835;SDS011;3963;42.658;23.298;2022-07-23T02:05:49;10.33;;;5.77;;
7835;SDS011;3963;42.658;23.298;2022-07-23T02:08:16;9.53;;;5.87;;
7835;SDS011;3963;42.658;23.298;2022-07-23T02:10:44;9.83;;;6.43;;
7835;SDS011;3963;42.658;23.298;2022-07-23T02:13:11;12.20;;;6.13;;
7835;SDS011;3963;42.658;23.298;2022-07-23T02:15:40;12.97;;;6.73;;
7835;SDS011;3963;42.658;23.298;2022-07-23T02:18:06;8.27;;;5.73;;
7835;SDS011;3963;42.658;23.298;2022-07-23T02:20:34;13.90;;;6.30;;
7835;SDS011;3963;42.658;23.298;2022-07-23T02:23:03;9.83;;;5.67;;
7835;SDS011;3963;42.658;23.298;2022-07-23T02:25:30;8.60;;;6.60;;
7835;SDS011;3963;42.658;23.298;2022-07-23T02:27:57;11.97;;;6.73;;
7835;SDS011;3963;42.658;23.298;2022-07-23T02:30:24;10.27;;;6.83;;
7835;SDS011;3963;42.658;23.298;2022-07-23T02:32:52;10.77;;;6.77;;
7835;SDS011;3963;42.658;23.298;2022-07-23T02:35:19;7.67;;;5.80;;
7835;SDS011;3963;42.658;23.298;2022-07-23T02:37:46;8.63;;;5.90;;
7835;SDS011;3963;42.658;23.298;2022-07-23T02:40:13;9.40;;;6.20;;
7835;SDS011;3963;42.658;23.298;2022-07-23T02:42:40;16.17;;;6.53;;
7835;SDS011;3963;42.658;23.298;2022-07-23T02:45:07;11.37;;;6.77;;
7835;SDS011;3963;42.658;23.298;2022-07-23T02:47:36;10.60;;;6.57;;
7835;SDS011;3963;42.658;23.298;2022-07-23T02:50:05;10.07;;;6.47;;
7835;SDS011;3963;42.658;23.298;2022-07-23T02:52:33;9.87;;;6.07;;
7835;SDS011;3963;42.658;23.298;2022-07-23T02:55:00;9.83;;;6.00;;
7835;SDS011;3963;42.658;23.298;2022-07-23T02:57:27;9.83;;;6.70;;
7835;SDS011;3963;42.658;23.298;2022-07-23T02:59:54;15.80;;;6.33;;
7835;SDS011;3963;42.658;23.298;2022-07-23T03:02:21;8.47;;;6.83;;
7835;SDS011;3963;42.658;23.298;2022-07-23T03:04:48;10.43;;;6.17;;
7835;SDS011;3963;42.658;23.298;2022-07-23T03:07:17;9.03;;;6.30;;
7835;SDS011;3963;42.658;23.298;2022-07-23T03:09:45;12.40;;;7.27;;
7835;SDS011;3963;42.658;23.298;2022-07-23T03:12:11;9.93;;;6.77;;
7835;SDS011;3963;42.658;23.298;2022-07-23T03:14:39;9.87;;;6.23;;
7835;SDS011;3963;42.658;23.298;2022-07-23T03:17:06;10.30;;;6.20;;
7835;SDS011;3963;42.658;23.298;2022-07-23T03:19:33;9.93;;;6.63;;
7835;SDS011;3963;42.658;23.298;2022-07-23T03:22:00;10.97;;;6.17;;
7835;SDS011;3963;42.658;23.298;2022-07-23T03:24:29;13.67;;;6.60;;
7835;SDS011;3963;42.658;23.298;2022-07-23T03:27:10;8.97;;;6.20;;
7835;SDS011;3963;42.658;23.298;2022-07-23T03:29:37;10.20;;;6.80;;
7835;SDS011;3963;42.658;23.298;2022-07-23T03:32:04;10.20;;;6.53;;
7835;SDS011;3963;42.658;23.298;2022-07-23T03:34:31;9.40;;;6.60;;
7835;SDS011;3963;42.658;23.298;2022-07-23T03:36:58;12.20;;;6.67;;
7835;SDS011;3963;42.658;23.298;2022-07-23T03:39:24;11.67;;;6.60;;
7835;SDS011;3963;42.658;23.298;2022-07-23T03:41:53;9.70;;;6.07;;
7835;SDS011;3963;42.658;23.298;2022-07-23T03:44:20;11.47;;;7.30;;
7835;SDS011;3963;42.658;23.298;2022-07-23T03:46:47;14.03;;;6.70;;
7835;SDS011;3963;42.658;23.298;2022-07-23T03:49:14;12.47;;;6.57;;
7835;SDS011;3963;42.658;23.298;2022-07-23T03:51:41;10.27;;;6.63;;
7835;SDS011;3963;42.658;23.298;2022-07-23T03:54:08;13.07;;;6.43;;
7835;SDS011;3963;42.658;23.298;2022-07-23T03:56:35;10.67;;;6.63;;
7835;SDS011;3963;42.658;23.298;2022-07-23T03:59:03;14.87;;;7.37;;
7835;SDS011;3963;42.658;23.298;2022-07-23T04:01:30;9.77;;;6.70;;
7835;SDS011;3963;42.658;23.298;2022-07-23T04:03:57;15.30;;;7.10;;
7835;SDS011;3963;42.658;23.298;2022-07-23T04:06:24;12.33;;;7.10;;
7835;SDS011;3963;42.658;23.298;2022-07-23T04:08:51;12.20;;;7.13;;
7835;SDS011;3963;42.658;23.298;2022-07-23T04:11:18;11.33;;;7.50;;
7835;SDS011;3963;42.658;23.298;2022-07-23T04:13:45;12.37;;;7.10;;
7835;SDS011;3963;42.658;23.298;2022-07-23T04:16:14;12.07;;;6.97;;
7835;SDS011;3963;42.658;23.298;2022-07-23T04:18:41;11.93;;;7.00;;
7835;SDS011;3963;42.658;23.298;2022-07-23T04:21:07;10.97;;;6.67;;
7835;SDS011;3963;42.658;23.298;2022-07-23T04:23:34;18.43;;;6.90;;
7835;SDS011;3963;42.658;23.298;2022-07-23T04:26:01;12.80;;;7.10;;
7835;SDS011;3963;42.658;23.298;2022-07-23T04:28:28;13.30;;;7.27;;
7835;SDS011;3963;42.658;23.298;2022-07-23T04:30:55;16.60;;;7.53;;
7835;SDS011;3963;42.658;23.298;2022-07-23T04:33:24;9.07;;;6.80;;
7835;SDS011;3963;42.658;23.298;2022-07-23T04:35:51;16.07;;;8.13;;
7835;SDS011;3963;42.658;23.298;2022-07-23T04:38:17;9.97;;;7.20;;
7835;SDS011;3963;42.658;23.298;2022-07-23T04:40:44;14.00;;;7.73;;
7835;SDS011;3963;42.658;23.298;2022-07-23T04:43:11;13.00;;;7.70;;
7835;SDS011;3963;42.658;23.298;2022-07-23T04:45:38;11.70;;;8.63;;
7835;SDS011;3963;42.658;23.298;2022-07-23T04:48:05;16.40;;;7.07;;
7835;SDS011;3963;42.658;23.298;2022-07-23T04:50:33;13.63;;;8.03;;
7835;SDS011;3963;42.658;23.298;2022-07-23T04:53:00;20.63;;;9.83;;
7835;SDS011;3963;42.658;23.298;2022-07-23T04:55:27;13.57;;;9.10;;
7835;SDS011;3963;42.658;23.298;2022-07-23T04:57:54;13.97;;;8.30;;
7835;SDS011;3963;42.658;23.298;2022-07-23T05:00:21;18.83;;;9.50;;
7835;SDS011;3963;42.658;23.298;2022-07-23T05:02:48;16.40;;;9.47;;
7835;SDS011;3963;42.658;23.298;2022-07-23T05:05:15;10.23;;;8.53;;
7835;SDS011;3963;42.658;23.298;2022-07-23T05:07:43;16.00;;;9.23;;
7835;SDS011;3963;42.658;23.298;2022-07-23T05:10:10;15.47;;;9.57;;
7835;SDS011;3963;42.658;23.298;2022-07-23T05:12:37;14.10;;;8.77;;
7835;SDS011;3963;42.658;23.298;2022-07-23T05:15:04;14.70;;;9.73;;
7835;SDS011;3963;42.658;23.298;2022-07-23T05:17:31;14.50;;;8.83;;
7835;SDS011;3963;42.658;23.298;2022-07-23T05:19:58;18.13;;;9.50;;
7835;SDS011;3963;42.658;23.298;2022-07-23T05:22:25;18.23;;;8.70;;
7835;SDS011;3963;42.658;23.298;2022-07-23T05:24:53;14.77;;;9.70;;
7835;SDS011;3963;42.658;23.298;2022-07-23T05:27:20;12.87;;;8.70;;
7835;SDS011;3963;42.658;23.298;2022-07-23T05:29:47;14.23;;;9.40;;
7835;SDS011;3963;42.658;23.298;2022-07-23T05:32:14;16.60;;;9.53;;
7835;SDS011;3963;42.658;23.298;2022-07-23T05:34:41;14.90;;;8.33;;
7835;SDS011;3963;42.658;23.298;2022-07-23T05:37:08;14.30;;;8.77;;
7835;SDS011;3963;42.658;23.298;2022-07-23T05:39:34;14.13;;;9.07;;
7835;SDS011;3963;42.658;23.298;2022-07-23T05:42:03;14.73;;;9.20;;
7835;SDS011;3963;42.658;23.298;2022-07-23T05:44:30;15.87;;;8.87;;
7835;SDS011;3963;42.658;23.298;2022-07-23T05:46:57;15.50;;;9.53;;
7835;SDS011;3963;42.658;23.298;2022-07-23T05:49:24;14.10;;;9.57;;
7835;SDS011;3963;42.658;23.298;2022-07-23T05:51:50;12.80;;;8.97;;
7835;SDS011;3963;42.658;23.298;2022-07-23T05:54:17;14.90;;;8.33;;
7835;SDS011;3963;42.658;23.298;2022-07-23T05:56:44;17.83;;;8.27;;
7835;SDS011;3963;42.658;23.298;2022-07-23T05:59:13;16.97;;;9.00;;
7835;SDS011;3963;42.658;23.298;2022-07-23T06:01:40;17.10;;;8.60;;
7835;SDS011;3963;42.658;23.298;2022-07-23T06:04:07;14.77;;;8.80;;
7835;SDS011;3963;42.658;23.298;2022-07-23T06:06:34;13.40;;;8.40;;
7835;SDS011;3963;42.658;23.298;2022-07-23T06:09:01;15.20;;;8.50;;
7835;SDS011;3963;42.658;23.298;2022-07-23T06:11:28;12.63;;;8.40;;
7835;SDS011;3963;42.658;23.298;2022-07-23T06:13:55;13.20;;;7.80;;
7835;SDS011;3963;42.658;23.298;2022-07-23T06:16:23;17.60;;;7.90;;
7835;SDS011;3963;42.658;23.298;2022-07-23T06:18:50;14.50;;;7.77;;
7835;SDS011;3963;42.658;23.298;2022-07-23T06:21:17;15.87;;;8.33;;
7835;SDS011;3963;42.658;23.298;2022-07-23T06:23:44;14.33;;;7.83;;
7835;SDS011;3963;42.658;23.298;2022-07-23T06:26:10;10.33;;;7.43;;
7835;SDS011;3963;42.658;23.298;2022-07-23T06:28:37;12.77;;;7.60;;
7835;SDS011;3963;42.658;23.298;2022-07-23T06:31:04;10.67;;;7.43;;
7835;SDS011;3963;42.658;23.298;2022-07-23T06:33:32;18.20;;;7.73;;
7835;SDS011;3963;42.658;23.298;2022-07-23T06:35:59;10.83;;;7.33;;
7835;SDS011;3963;42.658;23.298;2022-07-23T06:38:26;14.10;;;7.57;;
7835;SDS011;3963;42.658;23.298;2022-07-23T06:40:53;10.60;;;7.27;;
7835;SDS011;3963;42.658;23.298;2022-07-23T06:43:20;11.20;;;7.13;;
7835;SDS011;3963;42.658;23.298;2022-07-23T06:45:47;16.43;;;7.90;;
7835;SDS011;3963;42.658;23.298;2022-07-23T06:48:13;11.00;;;7.10;;
7835;SDS011;3963;42.658;23.298;2022-07-23T06:50:41;12.83;;;7.23;;
7835;SDS011;3963;42.658;23.298;2022-07-23T06:53:08;16.60;;;7.83;;
7835;SDS011;3963;42.658;23.298;2022-07-23T06:55:35;12.70;;;7.30;;
7835;SDS011;3963;42.658;23.298;2022-07-23T06:58:03;10.83;;;8.03;;
7835;SDS011;3963;42.658;23.298;2022-07-23T07:00:30;10.53;;;7.00;;
7835;SDS011;3963;42.658;23.298;2022-07-23T07:02:57;11.77;;;7.40;;
7835;SDS011;3963;42.658;23.298;2022-07-23T07:05:25;11.87;;;8.13;;
7835;SDS011;3963;42.658;23.298;2022-07-23T07:07:53;9.23;;;7.50;;
7835;SDS011;3963;42.658;23.298;2022-07-23T07:10:20;11.60;;;7.55;;
7835;SDS011;3963;42.658;23.298;2022-07-23T07:12:47;12.27;;;6.65;;
7835;SDS011;3963;42.658;23.298;2022-07-23T07:15:14;12.02;;;7.03;;
7835;SDS011;3963;42.658;23.298;2022-07-23T07:17:41;14.70;;;7.47;;
7835;SDS011;3963;42.658;23.298;2022-07-23T07:20:09;11.07;;;7.25;;
7835;SDS011;3963;42.658;23.298;2022-07-23T07:22:36;13.20;;;7.70;;
7835;SDS011;3963;42.658;23.298;2022-07-23T07:25:05;11.57;;;6.82;;
7835;SDS011;3963;42.658;23.298;2022-07-23T07:27:33;11.63;;;7.32;;
7835;SDS011;3963;42.658;23.298;2022-07-23T07:30:00;9.07;;;7.57;;
7835;SDS011;3963;42.658;23.298;2022-07-23T07:32:27;11.30;;;8.32;;
7835;SDS011;3963;42.658;23.298;2022-07-23T07:34:54;13.30;;;7.05;;
7835;SDS011;3963;42.658;23.298;2022-07-23T07:37:21;13.27;;;7.95;;
7835;SDS011;3963;42.658;23.298;2022-07-23T07:39:48;12.15;;;7.43;;
7835;SDS011;3963;42.658;23.298;2022-07-23T07:42:16;13.98;;;7.88;;
7835;SDS011;3963;42.658;23.298;2022-07-23T07:44:43;12.43;;;7.63;;
7835;SDS011;3963;42.658;23.298;2022-07-23T07:47:10;12.05;;;7.85;;
7835;SDS011;3963;42.658;23.298;2022-07-23T07:49:36;8.60;;;7.07;;
7835;SDS011;3963;42.658;23.298;2022-07-23T07:52:03;10.38;;;7.18;;
7835;SDS011;3963;42.658;23.298;2022-07-23T07:54:31;12.52;;;7.05;;
7835;SDS011;3963;42.658;23.298;2022-07-23T07:56:58;12.05;;;7.25;;
7835;SDS011;3963;42.658;23.298;2022-07-23T07:59:26;8.50;;;6.65;;
7835;SDS011;3963;42.658;23.298;2022-07-23T08:01:53;10.45;;;7.53;;
7835;SDS011;3963;42.658;23.298;2022-07-23T08:04:20;11.80;;;7.45;;
7835;SDS011;3963;42.658;23.298;2022-07-23T08:06:47;12.68;;;7.72;;
7835;SDS011;3963;42.658;23.298;2022-07-23T08:09:14;13.10;;;8.00;;
7835;SDS011;3963;42.658;23.298;2022-07-23T08:11:41;12.75;;;7.00;;
7835;SDS011;3963;42.658;23.298;2022-07-23T08:14:08;10.75;;;7.80;;
7835;SDS011;3963;42.658;23.298;2022-07-23T08:16:37;11.25;;;7.43;;
7835;SDS011;3963;42.658;23.298;2022-07-23T08:19:04;11.15;;;7.47;;
7835;SDS011;3963;42.658;23.298;2022-07-23T08:21:31;8.23;;;6.95;;
7835;SDS011;3963;42.658;23.298;2022-07-23T08:23:58;12.80;;;7.90;;
7835;SDS011;3963;42.658;23.298;2022-07-23T08:26:24;13.63;;;7.25;;
7835;SDS011;3963;42.658;23.298;2022-07-23T08:28:51;9.98;;;7.22;;
7835;SDS011;3963;42.658;23.298;2022-07-23T08:31:18;10.48;;;7.28;;
7835;SDS011;3963;42.658;23.298;2022-07-23T08:33:46;18.13;;;7.68;;
7835;SDS011;3963;42.658;23.298;2022-07-23T08:36:13;14.50;;;7.97;;
7835;SDS011;3963;42.658;23.298;2022-07-23T08:38:40;15.35;;;7.95;;
7835;SDS011;3963;42.658;23.298;2022-07-23T08:41:08;13.82;;;7.50;;
7835;SDS011;3963;42.658;23.298;2022-07-23T08:43:35;14.23;;;7.90;;
7835;SDS011;3963;42.658;23.298;2022-07-23T08:46:03;10.45;;;7.70;;
7835;SDS011;3963;42.658;23.298;2022-07-23T08:48:31;11.25;;;7.97;;
7835;SDS011;3963;42.658;23.298;2022-07-23T08:51:01;9.85;;;8.02;;
7835;SDS011;3963;42.658;23.298;2022-07-23T08:53:29;16.08;;;8.00;;
7835;SDS011;3963;42.658;23.298;2022-07-23T08:55:58;11.68;;;7.20;;
7835;SDS011;3963;42.658;23.298;2022-07-23T08:58:27;16.10;;;7.45;;
7835;SDS011;3963;42.658;23.298;2022-07-23T09:00:55;10.77;;;7.40;;
7835;SDS011;3963;42.658;23.298;2022-07-23T09:03:23;10.85;;;7.15;;
7835;SDS011;3963;42.658;23.298;2022-07-23T09:05:51;9.73;;;7.50;;
7835;SDS011;3963;42.658;23.298;2022-07-23T09:08:20;10.25;;;7.32;;
7835;SDS011;3963;42.658;23.298;2022-07-23T09:10:49;11.45;;;7.05;;
7835;SDS011;3963;42.658;23.298;2022-07-23T09:13:28;9.95;;;7.50;;
7835;SDS011;3963;42.658;23.298;2022-07-23T09:15:58;13.77;;;7.72;;
7835;SDS011;3963;42.658;23.298;2022-07-23T09:18:34;9.75;;;6.75;;
7835;SDS011;3963;42.658;23.298;2022-07-23T09:21:08;11.75;;;7.20;;
7835;SDS011;3963;42.658;23.298;2022-07-23T09:23:38;11.02;;;7.68;;
7835;SDS011;3963;42.658;23.298;2022-07-23T09:26:18;14.27;;;7.70;;
7835;SDS011;3963;42.658;23.298;2022-07-23T09:28:50;11.32;;;7.35;;
7835;SDS011;3963;42.658;23.298;2022-07-23T09:31:18;10.68;;;6.97;;
7835;SDS011;3963;42.658;23.298;2022-07-23T09:33:45;17.70;;;7.38;;
7835;SDS011;3963;42.658;23.298;2022-07-23T09:36:12;13.48;;;7.20;;
7835;SDS011;3963;42.658;23.298;2022-07-23T09:38:48;16.20;;;7.15;;
7835;SDS011;3963;42.658;23.298;2022-07-23T09:41:16;10.77;;;6.45;;
7835;SDS011;3963;42.658;23.298;2022-07-23T09:43:43;11.45;;;6.10;;
7835;SDS011;3963;42.658;23.298;2022-07-23T09:46:16;10.30;;;6.43;;
7835;SDS011;3963;42.658;23.298;2022-07-23T09:48:44;10.23;;;6.05;;
7835;SDS011;3963;42.658;23.298;2022-07-23T09:51:11;12.38;;;6.88;;
7835;SDS011;3963;42.658;23.298;2022-07-23T09:53:39;10.93;;;6.00;;
7835;SDS011;3963;42.658;23.298;2022-07-23T09:56:07;11.93;;;5.45;;
7835;SDS011;3963;42.658;23.298;2022-07-23T09:58:36;10.82;;;5.97;;
7835;SDS011;3963;42.658;23.298;2022-07-23T10:01:10;12.40;;;5.90;;
7835;SDS011;3963;42.658;23.298;2022-07-23T10:03:39;9.52;;;5.15;;
7835;SDS011;3963;42.658;23.298;2022-07-23T10:06:07;7.88;;;5.68;;
7835;SDS011;3963;42.658;23.298;2022-07-23T10:08:35;8.07;;;5.82;;
7835;SDS011;3963;42.658;23.298;2022-07-23T10:11:07;10.23;;;6.22;;
7835;SDS011;3963;42.658;23.298;2022-07-23T10:13:37;8.50;;;5.65;;
7835;SDS011;3963;42.658;23.298;2022-07-23T10:16:18;7.78;;;5.65;;
7835;SDS011;3963;42.658;23.298;2022-07-23T10:18:45;11.35;;;6.18;;
7835;SDS011;3963;42.658;23.298;2022-07-23T10:21:12;8.93;;;6.22;;
7835;SDS011;3963;42.658;23.298;2022-07-23T10:23:51;8.57;;;6.00;;
7835;SDS011;3963;42.658;23.298;2022-07-23T10:26:29;11.98;;;7.15;;
7835;SDS011;3963;42.658;23.298;2022-07-23T10:29:12;12.55;;;6.00;;
7835;SDS011;3963;42.658;23.298;2022-07-23T10:31:56;11.25;;;6.13;;
7835;SDS011;3963;42.658;23.298;2022-07-23T10:34:29;10.50;;;6.63;;
7835;SDS011;3963;42.658;23.298;2022-07-23T10:37:07;9.18;;;6.15;;
7835;SDS011;3963;42.658;23.298;2022-07-23T10:39:42;12.95;;;6.22;;
7835;SDS011;3963;42.658;23.298;2022-07-23T10:42:11;12.07;;;6.68;;
7835;SDS011;3963;42.658;23.298;2022-07-23T10:44:40;9.45;;;6.07;;
7835;SDS011;3963;42.658;23.298;2022-07-23T10:47:09;11.70;;;6.60;;
7835;SDS011;3963;42.658;23.298;2022-07-23T10:49:44;10.65;;;6.13;;
7835;SDS011;3963;42.658;23.298;2022-07-23T10:52:24;10.50;;;5.95;;
7835;SDS011;3963;42.658;23.298;2022-07-23T10:54:53;8.50;;;5.90;;
7835;SDS011;3963;42.658;23.298;2022-07-23T10:57:24;14.25;;;5.28;;
7835;SDS011;3963;42.658;23.298;2022-07-23T11:00:14;10.77;;;5.47;;
7835;SDS011;3963;42.658;23.298;2022-07-23T11:02:43;13.50;;;5.30;;
7835;SDS011;3963;42.658;23.298;2022-07-23T11:05:12;10.98;;;5.28;;
7835;SDS011;3963;42.658;23.298;2022-07-23T11:10:42;12.52;;;5.55;;
7835;SDS011;3963;42.658;23.298;2022-07-23T11:13:28;14.52;;;5.63;;
7835;SDS011;3963;42.658;23.298;2022-07-23T11:16:08;11.65;;;5.57;;
7835;SDS011;3963;42.658;23.298;2022-07-23T11:18:56;11.85;;;6.10;;
7835;SDS011;3963;42.658;23.298;2022-07-23T11:24:24;11.95;;;5.22;;
7835;SDS011;3963;42.658;23.298;2022-07-23T11:37:48;10.50;;;5.15;;
7835;SDS011;3963;42.658;23.298;2022-07-23T11:40:19;15.00;;;5.18;;
7835;SDS011;3963;42.658;23.298;2022-07-23T11:42:53;9.55;;;4.90;;
7835;SDS011;3963;42.658;23.298;2022-07-23T11:45:23;15.77;;;5.00;;
7835;SDS011;3963;42.658;23.298;2022-07-23T11:47:51;11.27;;;5.88;;
7835;SDS011;3963;42.658;23.298;2022-07-23T11:50:18;11.43;;;5.20;;
7835;SDS011;3963;42.658;23.298;2022-07-23T11:52:45;14.75;;;5.78;;
7835;SDS011;3963;42.658;23.298;2022-07-23T11:55:12;9.68;;;5.75;;
7835;SDS011;3963;42.658;23.298;2022-07-23T11:57:41;10.77;;;5.40;;
7835;SDS011;3963;42.658;23.298;2022-07-23T12:00:09;12.73;;;6.53;;
7835;SDS011;3963;42.658;23.298;2022-07-23T12:02:40;14.90;;;5.53;;
7835;SDS011;3963;42.658;23.298;2022-07-23T12:05:11;13.70;;;5.40;;
7835;SDS011;3963;42.658;23.298;2022-07-23T12:07:39;13.52;;;5.82;;
7835;SDS011;3963;42.658;23.298;2022-07-23T12:10:10;14.20;;;6.63;;
7835;SDS011;3963;42.658;23.298;2022-07-23T12:12:40;12.05;;;5.72;;
7835;SDS011;3963;42.658;23.298;2022-07-23T12:15:08;22.23;;;5.65;;
7835;SDS011;3963;42.658;23.298;2022-07-23T12:17:37;15.77;;;5.22;;
7835;SDS011;3963;42.658;23.298;2022-07-23T12:20:08;11.38;;;4.75;;
7835;SDS011;3963;42.658;23.298;2022-07-23T12:22:41;22.13;;;5.75;;
7835;SDS011;3963;42.658;23.298;2022-07-23T12:25:10;15.77;;;6.20;;
7835;SDS011;3963;42.658;23.298;2022-07-23T12:27:39;14.02;;;5.28;;
7835;SDS011;3963;42.658;23.298;2022-07-23T12:30:19;12.27;;;4.97;;
7835;SDS011;3963;42.658;23.298;2022-07-23T12:32:50;12.43;;;4.60;;
7835;SDS011;3963;42.658;23.298;2022-07-23T12:35:19;9.43;;;4.13;;
7835;SDS011;3963;42.658;23.298;2022-07-23T12:37:47;11.00;;;4.32;;
7835;SDS011;3963;42.658;23.298;2022-07-23T12:40:24;16.00;;;5.00;;
7835;SDS011;3963;42.658;23.298;2022-07-23T12:42:54;13.27;;;4.88;;
7835;SDS011;3963;42.658;23.298;2022-07-23T12:45:23;12.73;;;5.13;;
7835;SDS011;3963;42.658;23.298;2022-07-23T12:47:53;13.18;;;5.03;;
7835;SDS011;3963;42.658;23.298;2022-07-23T12:50:41;12.98;;;4.80;;
7835;SDS011;3963;42.658;23.298;2022-07-23T12:53:10;11.13;;;5.13;;
7835;SDS011;3963;42.658;23.298;2022-07-23T12:55:40;9.80;;;5.07;;
7835;SDS011;3963;42.658;23.298;2022-07-23T12:58:10;17.23;;;5.90;;
7835;SDS011;3963;42.658;23.298;2022-07-23T13:00:54;12.13;;;5.15;;
7835;SDS011;3963;42.658;23.298;2022-07-23T13:03:25;17.75;;;5.80;;
7835;SDS011;3963;42.658;23.298;2022-07-23T13:05:56;15.20;;;4.70;;
7835;SDS011;3963;42.658;23.298;2022-07-23T13:08:24;13.20;;;5.10;;
7835;SDS011;3963;42.658;23.298;2022-07-23T13:10:52;14.70;;;5.65;;
7835;SDS011;3963;42.658;23.298;2022-07-23T13:13:20;17.98;;;6.05;;
7835;SDS011;3963;42.658;23.298;2022-07-23T13:15:48;17.65;;;4.88;;
7835;SDS011;3963;42.658;23.298;2022-07-23T13:18:15;16.27;;;4.93;;
7835;SDS011;3963;42.658;23.298;2022-07-23T13:20:45;13.48;;;5.25;;
7835;SDS011;3963;42.658;23.298;2022-07-23T13:23:13;13.73;;;4.90;;
7835;SDS011;3963;42.658;23.298;2022-07-23T13:25:40;12.85;;;5.25;;
7835;SDS011;3963;42.658;23.298;2022-07-23T13:28:07;11.75;;;4.85;;
7835;SDS011;3963;42.658;23.298;2022-07-23T13:30:34;14.55;;;5.68;;
7835;SDS011;3963;42.658;23.298;2022-07-23T13:33:01;9.63;;;5.13;;
7835;SDS011;3963;42.658;23.298;2022-07-23T13:35:29;8.15;;;4.25;;
7835;SDS011;3963;42.658;23.298;2022-07-23T13:37:58;13.02;;;5.15;;
7835;SDS011;3963;42.658;23.298;2022-07-23T13:40:25;11.43;;;4.53;;
7835;SDS011;3963;42.658;23.298;2022-07-23T13:42:51;11.23;;;4.47;;
7835;SDS011;3963;42.658;23.298;2022-07-23T13:45:18;12.35;;;4.82;;
7835;SDS011;3963;42.658;23.298;2022-07-23T13:47:45;11.68;;;4.75;;
7835;SDS011;3963;42.658;23.298;2022-07-23T13:50:12;12.70;;;4.97;;
7835;SDS011;3963;42.658;23.298;2022-07-23T13:52:41;10.13;;;4.57;;
7835;SDS011;3963;42.658;23.298;2022-07-23T13:55:10;13.55;;;5.05;;
7835;SDS011;3963;42.658;23.298;2022-07-23T13:57:37;14.25;;;5.88;;
7835;SDS011;3963;42.658;23.298;2022-07-23T14:00:05;11.02;;;4.55;;
7835;SDS011;3963;42.658;23.298;2022-07-23T14:02:34;9.30;;;4.97;;
7835;SDS011;3963;42.658;23.298;2022-07-23T14:05:03;15.27;;;4.70;;
7835;SDS011;3963;42.658;23.298;2022-07-23T14:07:30;14.20;;;5.22;;
7835;SDS011;3963;42.658;23.298;2022-07-23T14:09:57;14.20;;;4.93;;
7835;SDS011;3963;42.658;23.298;2022-07-23T14:12:25;16.20;;;5.38;;
7835;SDS011;3963;42.658;23.298;2022-07-23T14:14:52;11.50;;;5.47;;
7835;SDS011;3963;42.658;23.298;2022-07-23T14:17:19;11.75;;;4.50;;
7835;SDS011;3963;42.658;23.298;2022-07-23T14:19:46;8.07;;;4.85;;
7835;SDS011;3963;42.658;23.298;2022-07-23T14:22:13;11.02;;;4.53;;
7835;SDS011;3963;42.658;23.298;2022-07-23T14:24:40;12.02;;;5.20;;
7835;SDS011;3963;42.658;23.298;2022-07-23T14:27:07;11.65;;;5.20;;
7835;SDS011;3963;42.658;23.298;2022-07-23T14:29:35;14.02;;;4.82;;
7835;SDS011;3963;42.658;23.298;2022-07-23T14:32:03;12.75;;;5.40;;
7835;SDS011;3963;42.658;23.298;2022-07-23T14:34:30;13.40;;;5.40;;
7835;SDS011;3963;42.658;23.298;2022-07-23T14:36:57;9.63;;;5.22;;
7835;SDS011;3963;42.658;23.298;2022-07-23T14:39:24;15.35;;;5.05;;
7835;SDS011;3963;42.658;23.298;2022-07-23T14:41:51;10.65;;;5.03;;
7835;SDS011;3963;42.658;23.298;2022-07-23T14:44:18;13.15;;;5.25;;
7835;SDS011;3963;42.658;23.298;2022-07-23T14:46:46;11.48;;;4.93;;
7835;SDS011;3963;42.658;23.298;2022-07-23T14:49:14;10.82;;;5.13;;
7835;SDS011;3963;42.658;23.298;2022-07-23T14:51:41;12.48;;;4.60;;
7835;SDS011;3963;42.658;23.298;2022-07-23T14:54:08;11.35;;;5.00;;
7835;SDS011;3963;42.658;23.298;2022-07-23T14:56:35;11.20;;;5.10;;
7835;SDS011;3963;42.658;23.298;2022-07-23T14:59:02;11.23;;;4.63;;
7835;SDS011;3963;42.658;23.298;2022-07-23T15:01:29;8.90;;;4.95;;
7835;SDS011;3963;42.658;23.298;2022-07-23T15:03:58;12.18;;;4.80;;
7835;SDS011;3963;42.658;23.298;2022-07-23T15:06:24;10.32;;;5.15;;
7835;SDS011;3963;42.658;23.298;2022-07-23T15:08:51;9.57;;;4.55;;
7835;SDS011;3963;42.658;23.298;2022-07-23T15:11:18;12.35;;;5.10;;
7835;SDS011;3963;42.658;23.298;2022-07-23T15:13:45;10.05;;;4.75;;
7835;SDS011;3963;42.658;23.298;2022-07-23T15:16:12;14.02;;;5.13;;